createdAt,value
2019-03-30T00:03:43.856Z,97091.59
2019-03-30T00:06:10.783Z,97098.60
2019-03-30T00:08:37.847Z,97094.82
2019-03-30T00:11:04.816Z,97098.48
2019-03-30T00:13:31.878Z,97093.02
2019-03-30T00:15:58.898Z,97091.37
2019-03-30T00:18:25.915Z,97094.71
2019-03-30T00:20:52.953Z,97093.92
2019-03-30T00:23:19.971Z,97089.60
2019-03-30T00:25:47.207Z,97084.63
2019-03-30T00:28:22.115Z,97089.52
2019-03-30T00:30:49.156Z,97087.08
2019-03-30T00:33:16.166Z,97086.92
2019-03-30T00:35:43.198Z,97080.77
2019-03-30T00:38:10.227Z,97077.79
2019-03-30T00:40:37.288Z,97079.63
2019-03-30T00:43:04.314Z,97070.48
2019-03-30T00:45:31.361Z,97068.51
2019-03-30T00:47:58.372Z,97062.36
2019-03-30T00:50:25.413Z,97064.19
2019-03-30T00:52:52.430Z,97065.70
2019-03-30T00:55:19.293Z,97064.37
2019-03-30T00:57:46.218Z,97064.25
2019-03-30T01:00:13.246Z,97070.38
2019-03-30T01:02:40.283Z,97064.75
2019-03-30T01:05:07.307Z,97063.61
2019-03-30T01:07:34.315Z,97067.09
2019-03-30T01:10:01.351Z,97067.59
2019-03-30T01:12:28.367Z,97066.77
2019-03-30T01:14:55.375Z,97061.13
2019-03-30T01:17:22.383Z,97058.31
2019-03-30T01:20:02.367Z,97055.18
2019-03-30T01:22:28.107Z,97063.84
2019-03-30T01:24:55.126Z,97063.20
2019-03-30T01:27:22.145Z,97058.94
2019-03-30T01:29:49.168Z,97058.97
2019-03-30T01:32:16.207Z,97060.65
2019-03-30T01:34:43.135Z,97058.70
2019-03-30T01:37:10.164Z,97051.30
2019-03-30T01:39:37.187Z,97059.46
2019-03-30T01:42:04.376Z,97055.67
2019-03-30T01:44:31.387Z,97054.72
2019-03-30T01:46:58.398Z,97055.95
2019-03-30T01:49:25.430Z,97051.16
2019-03-30T01:51:52.498Z,97052.03
2019-03-30T01:54:19.520Z,97051.41
2019-03-30T01:56:46.546Z,97049.42
2019-03-30T01:59:13.566Z,97053.75
2019-03-30T02:01:40.590Z,97044.13
2019-03-30T02:04:07.597Z,97045.45
2019-03-30T02:06:34.617Z,97048.46
2019-03-30T02:09:01.643Z,97052.97
2019-03-30T02:11:28.660Z,97050.81
2019-03-30T02:13:55.683Z,97049.48
2019-03-30T02:16:22.699Z,97048.83
2019-03-30T02:18:49.740Z,97047.20
2019-03-30T02:21:16.776Z,97046.72
2019-03-30T02:23:43.809Z,97047.23
2019-03-30T02:26:10.819Z,97047.58
2019-03-30T02:28:37.829Z,97045.61
2019-03-30T02:31:04.847Z,97040.52
2019-03-30T02:33:31.852Z,97035.37
2019-03-30T02:35:59.025Z,97034.38
2019-03-30T02:38:26.092Z,97034.55
2019-03-30T02:40:53.136Z,97040.86
2019-03-30T02:43:20.153Z,97042.69
2019-03-30T02:45:47.290Z,97043.02
2019-03-30T02:48:14.297Z,97038.03
2019-03-30T02:50:49.957Z,97042.86
2019-03-30T02:53:16.230Z,97042.03
2019-03-30T02:55:43.258Z,97045.69
2019-03-30T02:58:10.276Z,97038.89
2019-03-30T03:00:37.315Z,97040.72
2019-03-30T03:03:04.355Z,97042.72
2019-03-30T03:05:31.371Z,97040.73
2019-03-30T03:07:58.417Z,97038.08
2019-03-30T03:10:25.532Z,97036.30
2019-03-30T03:12:52.563Z,97034.31
2019-03-30T03:15:19.591Z,97043.77
2019-03-30T03:17:46.527Z,97040.12
2019-03-30T03:20:13.545Z,97037.47
2019-03-30T03:22:40.564Z,97041.13
2019-03-30T03:25:07.724Z,97042.95
2019-03-30T03:27:34.823Z,97044.61
2019-03-30T03:30:01.868Z,97037.97
2019-03-30T03:32:28.916Z,97041.62
2019-03-30T03:34:55.868Z,97037.81
2019-03-30T03:37:22.815Z,97045.44
2019-03-30T03:39:49.839Z,97042.13
2019-03-30T03:42:16.864Z,97039.48
2019-03-30T03:44:43.876Z,97042.30
2019-03-30T03:47:10.887Z,97034.34
2019-03-30T03:49:37.944Z,97037.38
2019-03-30T03:52:04.948Z,97037.54
2019-03-30T03:54:31.994Z,97036.88
2019-03-30T03:56:59.018Z,97033.57
2019-03-30T03:59:26.155Z,97036.22
2019-03-30T04:01:53.156Z,97034.56
2019-03-30T04:04:32.468Z,97040.88
2019-03-30T04:10:00.528Z,97033.59
2019-03-30T04:12:35.606Z,97038.73
2019-03-30T04:15:02.662Z,97053.37
2019-03-30T04:17:29.684Z,97049.73
2019-03-30T04:19:56.732Z,97044.76
2019-03-30T04:22:23.795Z,97048.91
2019-03-30T04:24:50.688Z,97045.75
2019-03-30T04:27:17.805Z,97045.09
2019-03-30T04:29:44.820Z,97034.31
2019-03-30T04:32:11.872Z,97040.94
2019-03-30T04:34:38.908Z,97041.27
2019-03-30T04:37:06.069Z,97043.59
2019-03-30T04:39:33.069Z,97049.90
2019-03-30T04:42:00.121Z,97044.95
2019-03-30T04:44:27.141Z,97043.30
2019-03-30T04:46:54.184Z,97046.95
2019-03-30T04:49:21.206Z,97041.48
2019-03-30T04:51:57.412Z,97039.66
2019-03-30T04:54:23.043Z,97043.48
2019-03-30T04:56:50.072Z,97043.64
2019-03-30T04:59:17.087Z,97046.63
2019-03-30T05:01:44.119Z,97047.29
2019-03-30T05:04:11.146Z,97044.64
2019-03-30T05:06:38.176Z,97048.45
2019-03-30T05:09:05.578Z,97046.63
2019-03-30T05:11:32.586Z,97045.80
2019-03-30T05:13:59.603Z,97047.62
2019-03-30T05:16:26.631Z,97047.95
2019-03-30T05:18:53.675Z,97055.91
2019-03-30T05:21:20.690Z,97056.91
2019-03-30T05:23:47.712Z,97060.39
2019-03-30T05:26:14.736Z,97061.71
2019-03-30T05:28:41.755Z,97059.23
2019-03-30T05:31:08.773Z,97059.56
2019-03-30T05:33:35.797Z,97062.88
2019-03-30T05:36:02.876Z,97061.38
2019-03-30T05:38:29.912Z,97071.99
2019-03-30T05:40:56.939Z,97064.20
2019-03-30T05:43:23.985Z,97062.83
2019-03-30T05:45:51.029Z,97068.95
2019-03-30T05:48:17.943Z,97066.25
2019-03-30T05:50:44.951Z,97063.59
2019-03-30T05:53:11.981Z,97063.11
2019-03-30T05:55:38.996Z,97061.94
2019-03-30T05:58:06.025Z,97054.66
2019-03-30T06:00:33.107Z,97060.01
2019-03-30T06:03:00.129Z,97055.32
2019-03-30T06:05:27.185Z,97057.09
2019-03-30T06:07:54.211Z,97059.13
2019-03-30T06:10:21.078Z,97057.88
2019-03-30T06:12:48.123Z,97061.38
2019-03-30T06:15:15.130Z,97061.47
2019-03-30T06:17:42.378Z,97064.33
2019-03-30T06:23:10.968Z,97062.69
2019-03-30T06:25:38.000Z,97064.48
2019-03-30T06:28:05.004Z,97063.31
2019-03-30T06:30:32.034Z,97061.50
2019-03-30T06:32:59.057Z,97061.05
2019-03-30T06:35:26.090Z,97061.69
2019-03-30T06:37:53.103Z,97066.03
2019-03-30T06:40:22.848Z,97067.48
2019-03-30T06:42:49.880Z,97064.69
2019-03-30T06:45:16.932Z,97071.89
2019-03-30T06:47:43.951Z,97064.89
2019-03-30T06:50:10.990Z,97066.29
2019-03-30T06:52:41.275Z,97062.52
2019-03-30T06:55:35.750Z,97062.81
2019-03-30T06:58:02.770Z,97070.34
2019-03-30T07:00:49.036Z,97074.55
2019-03-30T07:03:16.068Z,97074.77
2019-03-30T07:05:43.226Z,97069.59
2019-03-30T07:08:29.494Z,97063.27
2019-03-30T07:10:56.550Z,97065.63
2019-03-30T07:13:23.556Z,97072.49
2019-03-30T07:15:50.610Z,97072.62
2019-03-30T07:21:25.389Z,97072.28
2019-03-30T07:23:52.401Z,97076.34
2019-03-30T07:26:19.439Z,97073.72
2019-03-30T07:28:47.349Z,97071.06
2019-03-30T07:31:21.741Z,97064.75
2019-03-30T07:33:48.763Z,97067.55
2019-03-30T07:36:15.699Z,97061.66
2019-03-30T07:38:42.717Z,97060.88
2019-03-30T07:41:09.751Z,97066.70
2019-03-30T07:43:36.790Z,97063.15
2019-03-30T07:46:03.806Z,97063.14
2019-03-30T07:48:30.840Z,97062.27
2019-03-30T07:50:57.865Z,97064.33
2019-03-30T07:53:26.768Z,97061.89
2019-03-30T07:56:08.777Z,97064.38
2019-03-30T07:58:38.700Z,97062.02
2019-03-30T08:01:05.731Z,97062.22
2019-03-30T08:03:32.768Z,97057.45
2019-03-30T08:05:59.796Z,97050.41
2019-03-30T08:08:26.825Z,97052.67
2019-03-30T08:10:53.869Z,97056.14
2019-03-30T08:13:20.867Z,97052.11
2019-03-30T08:15:47.926Z,97051.89
2019-03-30T08:18:14.959Z,97050.45
2019-03-30T08:20:42.003Z,97054.05
2019-03-30T08:23:09.014Z,97054.45
2019-03-30T08:25:36.051Z,97047.50
2019-03-30T08:28:03.086Z,97055.83
2019-03-30T08:30:30.132Z,97051.58
2019-03-30T08:32:57.144Z,97042.34
2019-03-30T08:35:24.206Z,97044.89
2019-03-30T08:37:51.214Z,97052.46
2019-03-30T08:40:31.101Z,97043.13
2019-03-30T08:42:58.192Z,97041.00
2019-03-30T08:45:25.204Z,97038.89
2019-03-30T08:47:52.242Z,97039.34
2019-03-30T08:50:19.275Z,97043.94
2019-03-30T08:52:46.299Z,97035.69
2019-03-30T08:57:53.571Z,97031.95
2019-03-30T09:00:39.820Z,97027.94
2019-03-30T09:03:06.877Z,97024.81
2019-03-30T09:05:33.918Z,97020.29
2019-03-30T09:08:00.951Z,97010.12
2019-03-30T09:10:27.976Z,97017.34
2019-03-30T09:12:55.018Z,97006.30
2019-03-30T09:15:22.048Z,97004.94
2019-03-30T09:17:49.105Z,97002.06
2019-03-30T09:20:16.138Z,96996.27
2019-03-30T09:22:43.156Z,97000.11
2019-03-30T09:25:13.462Z,97006.45
2019-03-30T09:27:40.888Z,96994.27
2019-03-30T09:30:20.123Z,96997.51
2019-03-30T09:32:47.204Z,96981.67
2019-03-30T09:35:14.210Z,96985.25
2019-03-30T09:37:41.137Z,96986.66
2019-03-30T09:40:08.146Z,96977.48
2019-03-30T09:42:35.183Z,96981.57
2019-03-30T09:45:02.220Z,96981.05
2019-03-30T09:47:29.231Z,96978.31
2019-03-30T09:49:56.260Z,96972.87
2019-03-30T09:52:23.279Z,96965.75
2019-03-30T09:54:50.347Z,96967.87
2019-03-30T09:57:17.397Z,96957.33
2019-03-30T09:59:44.441Z,96958.77
2019-03-30T10:02:11.513Z,96966.77
2019-03-30T10:04:38.547Z,96961.09
2019-03-30T10:07:05.569Z,96957.05
2019-03-30T10:09:32.591Z,96952.58
2019-03-30T10:11:59.605Z,96945.45
2019-03-30T10:14:26.631Z,96939.64
2019-03-30T10:16:53.696Z,96933.45
2019-03-30T10:19:20.723Z,96934.23
2019-03-30T10:21:47.723Z,96928.83
2019-03-30T10:24:14.783Z,96917.13
2019-03-30T10:26:41.817Z,96911.19
2019-03-30T10:29:08.881Z,96906.91
2019-03-30T10:31:35.901Z,96902.25
2019-03-30T10:34:02.936Z,96893.13
2019-03-30T10:36:29.967Z,96901.10
2019-03-30T10:38:56.981Z,96896.36
2019-03-30T10:41:24.044Z,96886.03
2019-03-30T10:43:51.072Z,96887.40
2019-03-30T10:46:18.118Z,96883.83
2019-03-30T10:48:45.135Z,96883.49
2019-03-30T10:51:12.191Z,96877.91
2019-03-30T10:53:39.220Z,96866.31
2019-03-30T10:56:06.239Z,96875.28
2019-03-30T10:58:33.286Z,96867.92
2019-03-30T11:01:00.314Z,96861.50
2019-03-30T11:03:27.237Z,96860.98
2019-03-30T11:05:54.264Z,96852.55
2019-03-30T11:08:21.279Z,96852.48
2019-03-30T11:10:48.322Z,96849.38
2019-03-30T11:13:15.369Z,96844.78
2019-03-30T11:15:42.403Z,96844.19
2019-03-30T11:18:09.342Z,96838.97
2019-03-30T11:20:36.379Z,96837.06
2019-03-30T11:23:03.427Z,96828.89
2019-03-30T11:25:30.444Z,96827.95
2019-03-30T11:27:57.508Z,96826.64
2019-03-30T11:30:24.536Z,96820.20
2019-03-30T11:32:51.550Z,96825.48
2019-03-30T11:35:18.575Z,96819.14
2019-03-30T11:37:45.571Z,96806.58
2019-03-30T11:40:12.613Z,96800.90
2019-03-30T11:42:39.644Z,96791.34
2019-03-30T11:45:06.691Z,96794.62
2019-03-30T11:47:33.724Z,96787.96
2019-03-30T11:50:00.753Z,96790.72
2019-03-30T11:52:27.878Z,96792.47
2019-03-30T11:54:54.894Z,96785.70
2019-03-30T11:57:21.923Z,96781.09
2019-03-30T11:59:48.815Z,96773.97
2019-03-30T12:02:27.252Z,96771.47
2019-03-30T12:04:51.097Z,96768.16
2019-03-30T12:07:18.129Z,96770.66
2019-03-30T12:12:11.435Z,96757.73
2019-03-30T12:14:38.466Z,96751.84
2019-03-30T12:17:05.519Z,96748.30
2019-03-30T12:19:32.553Z,96742.55
2019-03-30T12:21:59.589Z,96739.41
2019-03-30T12:24:26.634Z,96736.52
2019-03-30T12:26:55.532Z,96736.19
2019-03-30T12:29:28.471Z,96739.11
2019-03-30T12:31:55.506Z,96734.39
2019-03-30T12:34:22.571Z,96731.41
2019-03-30T12:36:49.603Z,96733.20
2019-03-30T12:39:16.658Z,96728.82
2019-03-30T12:41:43.642Z,96727.30
2019-03-30T12:44:10.614Z,96724.30
2019-03-30T12:46:37.557Z,96723.48
2019-03-30T12:49:04.437Z,96719.60
2019-03-30T12:51:31.342Z,96716.75
2019-03-30T12:53:58.232Z,96713.44
2019-03-30T12:56:25.196Z,96710.78
2019-03-30T12:58:52.069Z,96709.05
2019-03-30T13:01:18.949Z,96707.34
2019-03-30T13:03:45.837Z,96701.14
2019-03-30T13:06:12.811Z,96699.69
2019-03-30T13:08:39.785Z,96695.92
2019-03-30T13:11:06.757Z,96692.07
2019-03-30T13:13:33.753Z,96686.08
2019-03-30T13:16:00.801Z,96689.07
2019-03-30T13:18:27.760Z,96682.23
2019-03-30T13:20:54.749Z,96676.30
2019-03-30T13:23:21.737Z,96679.63
2019-03-30T13:26:02.545Z,96679.63
2019-03-30T13:28:17.492Z,96673.83
2019-03-30T13:30:44.366Z,96670.77
2019-03-30T13:33:11.277Z,96670.24
2019-03-30T13:35:38.149Z,96666.72
2019-03-30T13:38:05.063Z,96671.42
2019-03-30T13:40:32.123Z,96663.89
2019-03-30T13:42:59.128Z,96664.94
2019-03-30T13:45:26.102Z,96656.87
2019-03-30T13:47:52.991Z,96651.45
2019-03-30T13:50:19.958Z,96660.08
2019-03-30T13:52:46.937Z,96652.71
2019-03-30T13:55:13.913Z,96641.56
2019-03-30T13:57:40.904Z,96636.94
2019-03-30T14:00:07.995Z,96642.56
2019-03-30T14:02:34.984Z,96647.38
2019-03-30T14:05:01.895Z,96643.84
2019-03-30T14:07:28.873Z,96632.19
2019-03-30T14:09:55.961Z,96634.66
2019-03-30T14:12:22.846Z,96627.81
2019-03-30T14:14:49.892Z,96631.20
2019-03-30T14:17:20.018Z,96624.94
2019-03-30T14:19:45.664Z,96628.62
2019-03-30T14:22:12.542Z,96627.59
2019-03-30T14:24:39.432Z,96627.30
2019-03-30T14:27:06.397Z,96630.11
2019-03-30T14:29:33.247Z,96626.77
2019-03-30T14:32:00.137Z,96626.26
2019-03-30T14:34:27.020Z,96614.13
2019-03-30T14:36:53.894Z,96613.59
2019-03-30T14:39:20.879Z,96611.19
2019-03-30T14:41:47.866Z,96615.09
2019-03-30T14:44:14.747Z,96613.45
2019-03-30T14:46:41.620Z,96605.56
2019-03-30T14:49:08.429Z,96608.42
2019-03-30T14:51:35.298Z,96608.42
2019-03-30T14:54:02.417Z,96601.31
2019-03-30T14:56:29.376Z,96601.37
2019-03-30T14:59:09.482Z,96597.20
2019-03-30T15:01:25.070Z,96592.34
2019-03-30T15:03:52.071Z,96585.93
2019-03-30T15:06:19.035Z,96581.03
2019-03-30T15:08:46.035Z,96574.33
2019-03-30T15:11:12.905Z,96577.02
2019-03-30T15:13:39.839Z,96574.64
2019-03-30T15:16:06.731Z,96570.86
2019-03-30T15:18:33.636Z,96574.97
2019-03-30T15:21:00.492Z,96573.02
2019-03-30T15:23:27.387Z,96570.91
2019-03-30T15:25:54.362Z,96575.25
2019-03-30T15:28:21.339Z,96568.36
2019-03-30T15:30:48.347Z,96563.28
2019-03-30T15:33:15.321Z,96560.89
2019-03-30T15:35:42.184Z,96558.57
2019-03-30T15:38:09.101Z,96554.44
2019-03-30T15:40:36.091Z,96553.95
2019-03-30T15:43:02.985Z,96546.11
2019-03-30T15:45:29.989Z,96545.05
2019-03-30T15:47:56.873Z,96544.97
2019-03-30T15:50:23.855Z,96544.83
2019-03-30T15:52:50.849Z,96541.60
2019-03-30T15:55:17.854Z,96543.77
2019-03-30T15:57:44.845Z,96544.48
2019-03-30T16:00:11.773Z,96536.91
2019-03-30T16:02:38.671Z,96527.50
2019-03-30T16:05:06.181Z,96524.52
2019-03-30T16:07:33.236Z,96520.50
2019-03-30T16:10:00.142Z,96523.34
2019-03-30T16:12:27.113Z,96524.32
2019-03-30T16:14:54.016Z,96521.27
2019-03-30T16:17:21.025Z,96521.39
2019-03-30T16:19:48.021Z,96521.28
2019-03-30T16:22:15.040Z,96521.62
2019-03-30T16:24:42.073Z,96523.63
2019-03-30T16:27:08.974Z,96524.05
2019-03-30T16:29:36.004Z,96524.42
2019-03-30T16:32:03.009Z,96521.81
2019-03-30T16:34:29.976Z,96519.91
2019-03-30T16:36:56.866Z,96523.82
2019-03-30T16:39:23.876Z,96523.08
2019-03-30T16:41:50.817Z,96526.51
2019-03-30T16:44:17.813Z,96520.44
2019-03-30T16:46:44.810Z,96524.55
2019-03-30T16:49:11.723Z,96525.74
2019-03-30T16:51:38.698Z,96522.62
2019-03-30T16:54:05.557Z,96525.02
2019-03-30T16:56:32.483Z,96533.66
2019-03-30T16:58:59.491Z,96527.39
2019-03-30T17:01:26.466Z,96531.22
2019-03-30T17:03:53.430Z,96526.03
2019-03-30T17:06:20.344Z,96525.14
2019-03-30T17:08:47.359Z,96533.11
2019-03-30T17:11:14.377Z,96530.47
2019-03-30T17:13:41.384Z,96530.50
2019-03-30T17:16:08.549Z,96527.83
2019-03-30T17:18:35.545Z,96523.52
2019-03-30T17:21:02.562Z,96521.09
2019-03-30T17:23:29.458Z,96530.07
2019-03-30T17:25:56.461Z,96530.88
2019-03-30T17:28:23.435Z,96529.47
2019-03-30T17:30:50.422Z,96526.97
2019-03-30T17:33:17.379Z,96534.73
2019-03-30T17:35:44.363Z,96534.09
2019-03-30T17:38:11.350Z,96535.61
2019-03-30T17:40:38.367Z,96535.45
2019-03-30T17:43:05.345Z,96534.52
2019-03-30T17:45:32.228Z,96537.39
2019-03-30T17:47:59.100Z,96536.70
2019-03-30T17:50:25.995Z,96541.15
2019-03-30T17:52:52.853Z,96541.52
2019-03-30T17:55:32.974Z,96541.11
2019-03-30T17:57:48.543Z,96549.34
2019-03-30T18:00:16.639Z,96543.53
2019-03-30T18:02:43.589Z,96549.30
2019-03-30T18:05:10.532Z,96553.17
2019-03-30T18:07:37.327Z,96555.96
2019-03-30T18:10:04.490Z,96554.16
2019-03-30T18:12:31.465Z,96556.45
2019-03-30T18:14:58.363Z,96559.27
2019-03-30T18:17:25.365Z,96564.22
2019-03-30T18:19:52.273Z,96564.36
2019-03-30T18:22:19.229Z,96562.84
2019-03-30T18:24:46.107Z,96571.59
2019-03-30T18:27:13.105Z,96574.31
2019-03-30T18:29:40.011Z,96582.00
2019-03-30T18:32:06.897Z,96576.95
2019-03-30T18:34:33.787Z,96576.44
2019-03-30T18:37:00.815Z,96582.66
2019-03-30T18:39:28.118Z,96578.70
2019-03-30T18:41:55.017Z,96588.77
2019-03-30T18:44:22.005Z,96582.63
2019-03-30T18:46:48.889Z,96587.59
2019-03-30T18:49:15.818Z,96584.84
2019-03-30T18:51:42.798Z,96588.45
2019-03-30T18:54:09.689Z,96588.28
2019-03-30T18:56:36.660Z,96588.11
2019-03-30T18:59:03.672Z,96591.53
2019-03-30T19:01:30.574Z,96596.33
2019-03-30T19:03:57.532Z,96589.20
2019-03-30T19:06:24.609Z,96590.62
2019-03-30T19:08:51.587Z,96589.03
2019-03-30T19:11:18.602Z,96585.22
2019-03-30T19:13:45.593Z,96592.14
2019-03-30T19:16:12.577Z,96584.84
2019-03-30T19:18:39.515Z,96585.88
2019-03-30T19:21:06.530Z,96591.52
2019-03-30T19:23:33.453Z,96591.64
2019-03-30T19:26:00.429Z,96585.76
2019-03-30T19:28:27.546Z,96593.87
2019-03-30T19:30:54.565Z,96595.30
2019-03-30T19:33:21.592Z,96595.16
2019-03-30T19:35:48.596Z,96593.47
2019-03-30T19:38:15.590Z,96594.15
2019-03-30T19:40:42.604Z,96590.20
2019-03-30T19:43:09.569Z,96588.38
2019-03-30T19:45:36.490Z,96587.86
2019-03-30T19:48:03.464Z,96595.19
2019-03-30T19:50:30.459Z,96597.20
2019-03-30T19:52:57.430Z,96594.66
2019-03-30T19:55:24.332Z,96598.31
2019-03-30T19:57:51.318Z,96592.59
2019-03-30T20:00:18.214Z,96595.78
2019-03-30T20:02:45.185Z,96598.64
2019-03-30T20:05:12.177Z,96599.00
2019-03-30T20:07:39.155Z,96593.56
2019-03-30T20:10:06.070Z,96584.84
2019-03-30T20:12:33.056Z,96588.62
2019-03-30T20:14:59.940Z,96596.72
2019-03-30T20:17:26.831Z,96593.00
2019-03-30T20:19:53.790Z,96598.41
2019-03-30T20:22:20.690Z,96589.98
2019-03-30T20:24:47.607Z,96603.69
2019-03-30T20:27:14.613Z,96593.19
2019-03-30T20:29:41.515Z,96589.39
2019-03-30T20:32:08.428Z,96596.30
2019-03-30T20:34:35.394Z,96595.92
2019-03-30T20:37:02.282Z,96592.67
2019-03-30T20:39:29.145Z,96592.28
2019-03-30T20:41:56.059Z,96589.73
2019-03-30T20:44:23.016Z,96588.44
2019-03-30T20:46:49.942Z,96588.22
2019-03-30T20:49:16.903Z,96588.26
2019-03-30T20:51:43.783Z,96587.20
2019-03-30T20:54:10.649Z,96593.13
2019-03-30T20:56:37.618Z,96596.36
2019-03-30T20:59:04.501Z,96593.74
2019-03-30T21:01:31.391Z,96592.02
2019-03-30T21:03:58.365Z,96581.00
2019-03-30T21:06:25.247Z,96578.84
2019-03-30T21:08:52.157Z,96587.39
2019-03-30T21:11:19.028Z,96582.25
2019-03-30T21:13:46.004Z,96585.56
2019-03-30T21:16:12.911Z,96584.66
2019-03-30T21:18:39.930Z,96584.08
2019-03-30T21:21:09.141Z,96586.66
2019-03-30T21:23:35.619Z,96589.67
2019-03-30T21:26:02.496Z,96582.28
2019-03-30T21:28:29.399Z,96584.86
2019-03-30T21:30:56.341Z,96587.17
2019-03-30T21:33:23.229Z,96586.47
2019-03-30T21:35:50.112Z,96589.05
2019-03-30T21:38:17.080Z,96595.95
2019-03-30T21:40:43.964Z,96598.84
2019-03-30T21:43:10.924Z,96600.39
2019-03-30T21:45:37.811Z,96598.23
2019-03-30T21:48:04.683Z,96595.45
2019-03-30T21:50:31.673Z,96597.67
2019-03-30T21:52:58.665Z,96602.22
2019-03-30T21:55:25.668Z,96607.98
2019-03-30T21:57:52.574Z,96603.16
2019-03-30T22:00:32.792Z,96607.38
2019-03-30T22:02:59.664Z,96607.58
2019-03-30T22:05:26.565Z,96601.55
2019-03-30T22:07:53.545Z,96605.47
2019-03-30T22:10:26.263Z,96605.06
2019-03-30T22:12:53.158Z,96608.77
2019-03-30T22:15:21.939Z,96602.30
2019-03-30T22:17:48.812Z,96604.97
2019-03-30T22:20:15.785Z,96599.73
2019-03-30T22:22:42.789Z,96598.59
2019-03-30T22:25:12.093Z,96603.95
2019-03-30T22:27:39.459Z,96603.88
2019-03-30T22:30:06.376Z,96607.80
2019-03-30T22:32:33.439Z,96603.17
2019-03-30T22:35:00.425Z,96602.24
2019-03-30T22:37:27.350Z,96599.68
2019-03-30T22:39:54.409Z,96604.83
2019-03-30T22:42:21.333Z,96605.98
2019-03-30T22:44:48.193Z,96601.06
2019-03-30T22:47:15.079Z,96600.65
2019-03-30T22:49:41.973Z,96598.91
2019-03-30T22:52:08.891Z,96600.34
2019-03-30T22:54:35.766Z,96600.17
2019-03-30T22:57:02.633Z,96597.29
2019-03-30T22:59:29.516Z,96599.55
2019-03-30T23:01:56.372Z,96599.45
2019-03-30T23:04:23.270Z,96595.78
2019-03-30T23:06:50.216Z,96597.69
2019-03-30T23:09:17.173Z,96597.80
2019-03-30T23:11:44.052Z,96599.33
2019-03-30T23:14:10.923Z,96599.33
2019-03-30T23:16:37.776Z,96594.30
2019-03-30T23:19:04.669Z,96594.50
2019-03-30T23:21:31.555Z,96598.61
2019-03-30T23:23:59.405Z,96599.43
2019-03-30T23:26:26.286Z,96592.88
2019-03-30T23:28:53.156Z,96598.42
2019-03-30T23:31:20.028Z,96598.42
2019-03-30T23:33:47.000Z,96592.88
2019-03-30T23:36:13.894Z,96595.04
2019-03-30T23:38:40.904Z,96596.78
2019-03-30T23:41:07.798Z,96592.88
2019-03-30T23:43:34.763Z,96598.31
2019-03-30T23:46:01.608Z,96599.64
2019-03-30T23:48:28.466Z,96601.09
2019-03-30T23:50:55.327Z,96598.42
2019-03-30T23:53:22.226Z,96595.55
2019-03-30T23:55:49.095Z,96595.86
2019-03-30T23:58:15.960Z,96593.39
